createdAt,value
2023-02-21T00:00:36.301Z,6.63
2023-02-21T00:03:21.662Z,5.77
2023-02-21T00:06:08.784Z,6.03
2023-02-21T00:08:54.128Z,5.90
2023-02-21T00:11:39.392Z,5.07
2023-02-21T00:14:24.987Z,5.10
2023-02-21T00:17:10.359Z,5.20
2023-02-21T00:19:55.818Z,5.30
2023-02-21T00:22:42.811Z,4.43
2023-02-21T00:25:28.267Z,4.90
2023-02-21T00:28:13.732Z,4.60
2023-02-21T00:30:59.519Z,4.37
2023-02-21T00:33:48.116Z,3.60
2023-02-21T00:36:35.846Z,3.83
2023-02-21T00:39:23.826Z,3.10
2023-02-21T00:42:09.112Z,3.20
2023-02-21T00:44:54.531Z,2.93
2023-02-21T00:47:40.116Z,2.57
2023-02-21T00:50:25.967Z,2.50
2023-02-21T00:53:11.532Z,2.10
2023-02-21T00:55:58.367Z,2.10
2023-02-21T00:58:44.236Z,2.13
2023-02-21T01:01:29.909Z,2.20
2023-02-21T01:04:16.832Z,1.90
2023-02-21T01:07:02.544Z,2.00
2023-02-21T01:09:48.069Z,2.20
2023-02-21T01:12:37.019Z,2.10
2023-02-21T01:15:23.344Z,2.40
2023-02-21T01:18:08.957Z,2.70
2023-02-21T01:20:54.600Z,3.20
2023-02-21T01:23:40.397Z,3.13
2023-02-21T01:26:27.756Z,3.73
2023-02-21T01:29:18.005Z,4.20
2023-02-21T01:32:03.463Z,3.80
2023-02-21T01:34:48.806Z,4.10
2023-02-21T01:37:34.185Z,3.73
2023-02-21T01:40:19.708Z,3.57
2023-02-21T01:43:05.296Z,4.03
2023-02-21T01:46:08.736Z,3.80
2023-02-21T01:48:55.214Z,3.03
2023-02-21T01:51:44.628Z,3.80
2023-02-21T01:54:30.801Z,3.37
2023-02-21T01:57:19.449Z,3.63
2023-02-21T02:00:07.967Z,3.33
2023-02-21T02:03:08.894Z,3.53
2023-02-21T02:05:55.857Z,3.63
2023-02-21T02:08:46.917Z,4.50
2023-02-21T02:11:45.175Z,4.03
2023-02-21T02:14:29.095Z,4.10
2023-02-21T02:17:06.134Z,4.73
2023-02-21T02:20:15.796Z,4.87
2023-02-21T02:23:33.940Z,4.40
2023-02-21T02:26:26.137Z,4.60
2023-02-21T02:29:12.940Z,4.20
2023-02-21T02:32:05.375Z,3.90
2023-02-21T02:34:54.884Z,3.40
2023-02-21T02:37:29.099Z,2.80
2023-02-21T02:40:03.304Z,2.63
2023-02-21T02:42:46.468Z,2.43
2023-02-21T02:45:21.014Z,2.43
2023-02-21T02:47:55.018Z,2.27
2023-02-21T02:50:25.655Z,1.97
2023-02-21T02:52:55.240Z,2.10
2023-02-21T02:55:35.244Z,1.80
2023-02-21T02:58:04.719Z,1.90
2023-02-21T03:00:36.003Z,2.17
2023-02-21T03:03:40.768Z,2.13
2023-02-21T03:06:22.598Z,2.13
2023-02-21T03:08:58.146Z,1.80
2023-02-21T03:11:27.838Z,2.20
2023-02-21T03:14:02.915Z,2.10
2023-02-21T03:16:37.461Z,2.23
2023-02-21T03:19:09.474Z,2.50
2023-02-21T03:21:42.970Z,2.07
2023-02-21T03:24:14.165Z,2.10
2023-02-21T03:26:45.555Z,1.97
2023-02-21T03:29:38.461Z,2.00
2023-02-21T03:32:12.380Z,2.33
2023-02-21T03:34:42.595Z,1.87
2023-02-21T03:37:21.930Z,2.00
2023-02-21T03:39:50.732Z,2.40
2023-02-21T03:42:18.733Z,2.23
2023-02-21T03:44:47.226Z,2.20
2023-02-21T03:47:16.396Z,1.93
2023-02-21T03:49:44.679Z,1.90
2023-02-21T03:52:14.638Z,1.97
2023-02-21T03:54:42.922Z,2.17
2023-02-21T03:57:15.783Z,2.10
2023-02-21T03:59:46.747Z,2.00
2023-02-21T04:02:15.661Z,1.93
2023-02-21T04:04:43.964Z,2.00
2023-02-21T04:07:17.431Z,1.90
2023-02-21T04:09:45.791Z,2.30
2023-02-21T04:12:18.149Z,1.90
2023-02-21T04:14:46.563Z,2.37
2023-02-21T04:17:16.118Z,1.80
2023-02-21T04:19:44.915Z,1.87
2023-02-21T04:22:12.920Z,1.77
2023-02-21T04:24:42.455Z,1.77
2023-02-21T04:27:11.265Z,1.87
2023-02-21T04:29:41.900Z,1.87
2023-02-21T04:32:11.605Z,1.80
2023-02-21T04:34:40.027Z,2.07
2023-02-21T04:37:08.467Z,2.30
2023-02-21T04:39:36.890Z,2.10
2023-02-21T04:42:06.309Z,2.20
2023-02-21T04:44:37.123Z,2.00
2023-02-21T04:47:05.440Z,1.97
2023-02-21T04:49:33.537Z,1.90
2023-02-21T04:52:01.637Z,2.07
2023-02-21T04:54:29.622Z,1.93
2023-02-21T04:56:57.734Z,2.27
2023-02-21T04:59:27.605Z,2.00
2023-02-21T05:01:55.619Z,2.40
2023-02-21T05:04:23.798Z,2.30
2023-02-21T05:06:51.827Z,2.60
2023-02-21T05:09:19.834Z,2.53
2023-02-21T05:11:47.846Z,2.50
2023-02-21T05:14:17.734Z,2.50
2023-02-21T05:16:47.154Z,3.10
2023-02-21T05:19:27.290Z,3.10
2023-02-21T05:21:56.994Z,2.93
2023-02-21T05:24:25.128Z,3.23
2023-02-21T05:26:53.816Z,3.20
2023-02-21T05:29:22.056Z,3.50
2023-02-21T05:31:51.435Z,3.00
2023-02-21T05:34:19.830Z,2.47
2023-02-21T05:36:47.917Z,3.10
2023-02-21T05:39:15.984Z,3.93
2023-02-21T05:41:48.684Z,2.90
2023-02-21T05:44:16.723Z,2.83
2023-02-21T05:46:45.899Z,3.43
2023-02-21T05:49:16.414Z,3.47
2023-02-21T05:51:45.518Z,3.40
2023-02-21T05:54:17.648Z,3.30
2023-02-21T05:56:49.908Z,3.43
2023-02-21T05:59:19.537Z,3.70
2023-02-21T06:01:47.572Z,3.70
2023-02-21T06:04:16.995Z,3.80
2023-02-21T06:06:45.464Z,3.97
2023-02-21T06:09:13.812Z,4.47
2023-02-21T06:11:41.871Z,4.63
2023-02-21T06:14:14.720Z,4.57
2023-02-21T06:16:43.115Z,4.50
2023-02-21T06:19:12.648Z,5.40
2023-02-21T06:21:42.097Z,5.33
2023-02-21T06:24:11.247Z,5.80
2023-02-21T06:26:41.073Z,6.17
2023-02-21T06:29:09.656Z,6.37
2023-02-21T06:31:37.786Z,6.57
2023-02-21T06:34:06.330Z,7.20
2023-02-21T06:36:35.615Z,6.47
2023-02-21T06:39:05.337Z,6.73
2023-02-21T06:41:33.359Z,6.97
2023-02-21T06:44:01.376Z,6.33
2023-02-21T06:46:31.301Z,6.53
2023-02-21T06:48:59.385Z,6.53
2023-02-21T06:51:29.518Z,6.83
2023-02-21T06:53:59.084Z,6.90
2023-02-21T06:56:28.791Z,6.53
2023-02-21T06:58:57.570Z,6.97
2023-02-21T07:01:27.870Z,6.00
2023-02-21T07:03:56.820Z,6.27
2023-02-21T07:06:26.022Z,7.03
2023-02-21T07:08:55.623Z,6.33
2023-02-21T07:11:23.638Z,6.53
2023-02-21T07:13:54.257Z,6.47
2023-02-21T07:16:22.607Z,6.47
2023-02-21T07:18:50.620Z,6.77
2023-02-21T07:21:19.516Z,7.83
2023-02-21T07:23:48.650Z,6.63
2023-02-21T07:26:17.167Z,6.93
2023-02-21T07:28:46.102Z,7.10
2023-02-21T07:31:18.263Z,7.27
2023-02-21T07:33:47.390Z,6.47
2023-02-21T07:36:15.417Z,5.40
2023-02-21T07:38:43.530Z,6.57
2023-02-21T07:41:11.655Z,5.47
2023-02-21T07:43:40.027Z,6.50
2023-02-21T07:46:12.037Z,5.43
2023-02-21T07:48:41.721Z,4.93
2023-02-21T07:51:11.235Z,5.10
2023-02-21T07:53:39.268Z,4.87
2023-02-21T07:56:07.590Z,4.33
2023-02-21T07:58:37.480Z,4.47
2023-02-21T08:04:05.809Z,4.07
2023-02-21T08:06:35.584Z,4.23
2023-02-21T08:09:04.234Z,4.30
2023-02-21T08:11:32.697Z,4.50
2023-02-21T08:14:00.707Z,4.50
2023-02-21T08:16:28.772Z,4.23
2023-02-21T08:18:56.814Z,3.93
2023-02-21T08:21:26.459Z,3.77
2023-02-21T08:23:55.004Z,4.20
2023-02-21T08:26:23.648Z,4.43
2023-02-21T08:28:51.684Z,4.00
2023-02-21T08:31:19.785Z,4.13
2023-02-21T08:33:47.823Z,4.00
2023-02-21T08:36:15.844Z,3.60
2023-02-21T08:38:45.232Z,4.30
2023-02-21T08:41:13.596Z,4.03
2023-02-21T08:43:41.731Z,4.27
2023-02-21T08:46:09.856Z,4.20
2023-02-21T08:48:37.900Z,4.67
2023-02-21T08:51:06.239Z,4.43
2023-02-21T08:53:34.230Z,4.67
2023-02-21T08:56:03.658Z,4.53
2023-02-21T08:58:31.685Z,4.87
2023-02-21T09:00:59.681Z,4.10
2023-02-21T09:03:27.773Z,4.27
2023-02-21T09:05:56.104Z,4.53
2023-02-21T09:08:26.681Z,4.50
2023-02-21T09:10:56.792Z,4.23
2023-02-21T09:13:26.162Z,4.63
2023-02-21T09:15:54.237Z,4.03
2023-02-21T09:18:22.280Z,3.90
2023-02-21T09:20:52.468Z,4.80
2023-02-21T09:23:21.167Z,3.77
2023-02-21T09:25:49.645Z,3.80
2023-02-21T09:28:18.320Z,4.03
2023-02-21T09:30:48.275Z,3.67
2023-02-21T09:33:17.087Z,3.60
2023-02-21T09:35:45.083Z,3.57
2023-02-21T09:38:13.172Z,3.40
2023-02-21T09:40:44.283Z,3.87
2023-02-21T09:43:19.798Z,3.80
2023-02-21T09:45:52.575Z,3.27
2023-02-21T09:48:23.099Z,3.07
2023-02-21T09:50:54.568Z,2.80
2023-02-21T09:53:27.054Z,3.93
2023-02-21T09:56:00.166Z,3.20
2023-02-21T09:58:28.260Z,3.40
2023-02-21T10:01:02.065Z,3.00
2023-02-21T10:03:44.883Z,2.60
2023-02-21T10:06:24.511Z,2.57
2023-02-21T10:08:58.904Z,2.87
2023-02-21T10:11:38.496Z,2.83
2023-02-21T10:14:19.379Z,2.93
2023-02-21T10:16:56.409Z,2.90
2023-02-21T10:19:31.219Z,2.77
2023-02-21T10:22:03.654Z,3.03
2023-02-21T10:24:31.929Z,2.87
2023-02-21T10:27:03.711Z,2.70
2023-02-21T10:29:40.079Z,2.93
2023-02-21T10:32:09.951Z,2.57
2023-02-21T10:34:38.051Z,2.43
2023-02-21T10:37:25.003Z,2.60
2023-02-21T10:39:56.360Z,2.50
2023-02-21T10:42:31.661Z,3.30
2023-02-21T10:45:00.864Z,2.87
2023-02-21T10:47:47.095Z,2.80
2023-02-21T10:50:15.140Z,2.30
2023-02-21T10:52:49.225Z,2.40
2023-02-21T10:55:31.924Z,2.50
2023-02-21T10:58:08.893Z,2.30
2023-02-21T11:00:39.091Z,2.70
2023-02-21T11:03:19.804Z,2.40
2023-02-21T11:05:51.263Z,2.50
2023-02-21T11:08:36.703Z,2.47
2023-02-21T11:11:04.817Z,2.57
2023-02-21T11:13:36.102Z,2.47
2023-02-21T11:16:13.104Z,2.73
2023-02-21T11:18:42.633Z,2.50
2023-02-21T11:21:14.561Z,2.20
2023-02-21T11:23:50.094Z,2.00
2023-02-21T11:26:18.268Z,2.00
2023-02-21T11:28:48.695Z,1.87
2023-02-21T11:31:19.516Z,1.47
2023-02-21T11:33:56.245Z,1.20
2023-02-21T11:36:29.579Z,1.20
2023-02-21T11:39:04.471Z,1.50
2023-02-21T11:41:38.097Z,1.40
2023-02-21T11:44:25.444Z,1.67
2023-02-21T11:47:02.263Z,1.60
2023-02-21T11:49:38.660Z,1.80
2023-02-21T11:52:12.237Z,1.60
2023-02-21T11:54:41.053Z,1.73
2023-02-21T11:57:18.270Z,1.77
2023-02-21T11:59:52.111Z,1.30
2023-02-21T12:02:43.385Z,1.63
2023-02-21T12:05:29.435Z,1.80
2023-02-21T12:08:20.379Z,1.70
2023-02-21T12:10:57.813Z,1.67
2023-02-21T12:13:34.624Z,1.40
2023-02-21T12:16:13.160Z,1.13
2023-02-21T12:18:52.855Z,1.80
2023-02-21T12:21:39.239Z,1.50
2023-02-21T12:24:31.154Z,1.37
2023-02-21T12:27:03.963Z,1.30
2023-02-21T12:29:48.924Z,1.10
2023-02-21T12:32:43.280Z,1.33
2023-02-21T12:35:53.750Z,1.30
2023-02-21T12:38:30.610Z,1.10
2023-02-21T12:41:07.525Z,1.20
2023-02-21T12:43:46.797Z,1.10
2023-02-21T12:46:23.897Z,1.87
2023-02-21T12:48:57.860Z,1.50
2023-02-21T12:51:32.780Z,1.23
2023-02-21T12:54:05.417Z,1.20
2023-02-21T12:56:41.112Z,1.33
2023-02-21T12:59:16.501Z,1.40
2023-02-21T13:01:49.021Z,1.50
2023-02-21T13:04:25.996Z,1.33
2023-02-21T13:06:59.715Z,1.70
2023-02-21T13:09:36.718Z,2.00
2023-02-21T13:12:09.870Z,2.20
2023-02-21T13:14:42.713Z,2.00
2023-02-21T13:17:13.091Z,2.00
2023-02-21T13:19:46.463Z,2.37
2023-02-21T13:23:09.538Z,2.67
2023-02-21T13:26:16.467Z,2.17
2023-02-21T13:28:45.864Z,2.70
2023-02-21T13:31:21.585Z,2.70
2023-02-21T13:33:52.562Z,2.73
2023-02-21T13:36:27.872Z,2.70
2023-02-21T13:39:02.492Z,3.13
2023-02-21T13:41:36.136Z,2.90
2023-02-21T13:44:09.195Z,3.17
2023-02-21T13:47:10.624Z,3.67
2023-02-21T13:49:44.415Z,4.20
2023-02-21T13:52:31.828Z,4.07
2023-02-21T13:55:32.489Z,4.13
2023-02-21T13:58:33.142Z,4.40
2023-02-21T14:01:33.657Z,4.23
2023-02-21T14:04:21.702Z,4.50
2023-02-21T14:06:57.386Z,5.20
2023-02-21T14:09:25.471Z,5.27
2023-02-21T14:11:55.000Z,5.60
2023-02-21T14:14:27.892Z,5.50
2023-02-21T14:17:02.166Z,5.27
2023-02-21T14:19:39.377Z,4.97
2023-02-21T14:22:14.274Z,5.97
2023-02-21T14:24:45.893Z,5.67
2023-02-21T14:27:39.002Z,5.47
2023-02-21T14:30:29.860Z,6.00
2023-02-21T14:33:09.980Z,5.80
2023-02-21T14:35:46.554Z,5.70
2023-02-21T14:38:21.648Z,5.77
2023-02-21T14:41:02.732Z,5.70
2023-02-21T14:43:47.591Z,6.40
2023-02-21T14:46:44.180Z,6.10
2023-02-21T14:49:44.657Z,6.13
2023-02-21T14:53:03.741Z,5.30
2023-02-21T14:56:07.981Z,6.13
2023-02-21T14:59:03.762Z,6.07
2023-02-21T15:01:55.352Z,5.77
2023-02-21T15:04:35.182Z,6.10
2023-02-21T15:07:17.017Z,5.90
2023-02-21T15:09:45.369Z,6.07
2023-02-21T15:12:16.880Z,6.00
2023-02-21T15:14:50.933Z,6.20
2023-02-21T15:17:25.732Z,6.20
2023-02-21T15:20:06.360Z,5.97
2023-02-21T15:22:34.418Z,5.77
2023-02-21T15:25:20.809Z,5.70
2023-02-21T15:28:03.409Z,5.73
2023-02-21T15:30:39.641Z,6.30
2023-02-21T15:33:15.188Z,5.57
2023-02-21T15:35:50.379Z,5.80
2023-02-21T15:38:24.136Z,6.77
2023-02-21T15:40:56.665Z,5.93
2023-02-21T15:43:32.015Z,6.70
2023-02-21T15:46:03.417Z,5.87
2023-02-21T15:48:37.866Z,6.37
2023-02-21T15:51:09.944Z,6.30
2023-02-21T15:53:38.021Z,6.17
2023-02-21T15:56:21.760Z,6.33
2023-02-21T15:59:26.785Z,5.73
2023-02-21T16:02:17.855Z,5.87
2023-02-21T16:04:49.519Z,6.60
2023-02-21T16:07:22.193Z,5.63
2023-02-21T16:09:57.929Z,6.17
2023-02-21T16:12:33.878Z,6.40
2023-02-21T16:15:05.855Z,6.17
2023-02-21T16:17:38.505Z,6.40
2023-02-21T16:20:17.712Z,6.60
2023-02-21T16:23:06.861Z,6.50
2023-02-21T16:25:36.030Z,6.57
2023-02-21T16:28:12.590Z,6.40
2023-02-21T16:30:40.736Z,6.50
2023-02-21T16:33:11.527Z,6.73
2023-02-21T16:35:41.796Z,6.00
2023-02-21T16:38:14.483Z,6.60
2023-02-21T16:40:42.637Z,7.20
2023-02-21T16:43:18.281Z,6.50
2023-02-21T16:45:48.340Z,6.90
2023-02-21T16:48:21.791Z,7.20
2023-02-21T16:50:52.230Z,7.83
2023-02-21T16:53:21.856Z,7.17
2023-02-21T16:55:51.167Z,7.97
2023-02-21T16:58:26.474Z,7.50
2023-02-21T17:00:57.053Z,8.17
2023-02-21T17:03:25.307Z,9.20
2023-02-21T17:05:56.525Z,8.93
2023-02-21T17:08:25.611Z,8.23
2023-02-21T17:10:53.609Z,8.07
2023-02-21T17:13:21.659Z,8.87
2023-02-21T17:15:49.649Z,9.00
2023-02-21T17:18:17.776Z,9.70
2023-02-21T17:20:45.824Z,8.60
2023-02-21T17:23:15.909Z,8.70
2023-02-21T17:25:44.242Z,9.37
2023-02-21T17:28:12.275Z,9.17
2023-02-21T17:30:40.343Z,9.50
2023-02-21T17:33:10.988Z,9.60
2023-02-21T17:35:39.195Z,9.00
2023-02-21T17:38:07.255Z,8.13
2023-02-21T17:40:36.671Z,8.97
2023-02-21T17:43:08.949Z,9.00
2023-02-21T17:45:37.664Z,9.57
2023-02-21T17:48:06.522Z,10.43
2023-02-21T17:50:34.838Z,9.53
2023-02-21T17:53:02.920Z,10.13
2023-02-21T17:55:32.280Z,9.70
2023-02-21T17:58:02.032Z,10.23
2023-02-21T18:00:33.891Z,9.80
2023-02-21T18:03:04.222Z,10.07
2023-02-21T18:05:32.485Z,9.77
2023-02-21T18:08:00.767Z,10.03
2023-02-21T18:10:28.804Z,11.00
2023-02-21T18:12:57.058Z,10.93
2023-02-21T18:15:28.888Z,12.27
2023-02-21T18:17:58.432Z,12.90
2023-02-21T18:20:26.456Z,12.20
2023-02-21T18:22:54.536Z,11.13
2023-02-21T18:25:24.180Z,11.80
2023-02-21T18:27:52.439Z,11.43
2023-02-21T18:30:21.767Z,11.93
2023-02-21T18:32:51.306Z,11.03
2023-02-21T18:35:20.338Z,11.13
2023-02-21T18:37:49.188Z,12.10
2023-02-21T18:40:19.009Z,12.00
2023-02-21T18:42:47.706Z,12.03
2023-02-21T18:45:15.813Z,12.07
2023-02-21T18:47:43.822Z,11.47
2023-02-21T18:50:13.357Z,12.73
2023-02-21T18:52:41.420Z,12.70
2023-02-21T18:55:09.644Z,13.07
2023-02-21T18:57:39.826Z,12.70
2023-02-21T19:00:10.011Z,13.57
2023-02-21T19:02:38.045Z,12.53
2023-02-21T19:05:06.334Z,13.57
2023-02-21T19:07:36.383Z,14.63
2023-02-21T19:10:04.683Z,16.63
2023-02-21T19:12:32.703Z,14.87
2023-02-21T19:15:00.709Z,14.23
2023-02-21T19:17:28.853Z,15.07
2023-02-21T19:19:56.856Z,13.87
2023-02-21T19:22:24.912Z,15.33
2023-02-21T19:24:54.396Z,13.97
2023-02-21T19:27:22.419Z,13.50
2023-02-21T19:29:50.423Z,14.37
2023-02-21T19:32:19.923Z,13.80
2023-02-21T19:34:50.155Z,15.53
2023-02-21T19:37:18.759Z,12.90
2023-02-21T19:39:46.895Z,13.70
2023-02-21T19:42:16.325Z,14.43
2023-02-21T19:44:44.328Z,16.07
2023-02-21T19:47:12.343Z,14.13
2023-02-21T19:49:41.197Z,16.97
2023-02-21T19:52:09.235Z,16.17
2023-02-21T19:54:37.269Z,15.10
2023-02-21T19:57:05.470Z,15.70
2023-02-21T19:59:34.909Z,15.43
2023-02-21T20:02:03.847Z,16.53
2023-02-21T20:04:31.910Z,17.10
2023-02-21T20:07:00.142Z,16.40
2023-02-21T20:09:28.195Z,18.00
2023-02-21T20:11:56.209Z,16.90
2023-02-21T20:14:24.228Z,17.97
2023-02-21T20:16:54.244Z,16.30
2023-02-21T20:19:23.375Z,17.20
2023-02-21T20:21:53.228Z,18.37
2023-02-21T20:24:21.708Z,18.93
2023-02-21T20:26:51.978Z,22.13
2023-02-21T20:29:20.317Z,24.33
2023-02-21T20:31:48.572Z,28.10
2023-02-21T20:34:18.201Z,25.77
2023-02-21T20:36:47.006Z,26.53
2023-02-21T20:39:20.727Z,22.20
2023-02-21T20:41:48.772Z,21.97
2023-02-21T20:44:17.004Z,21.60
2023-02-21T20:46:45.070Z,18.17
2023-02-21T20:49:14.884Z,19.30
2023-02-21T20:51:44.964Z,18.60
2023-02-21T20:54:19.885Z,20.97
2023-02-21T20:56:49.649Z,18.53
2023-02-21T20:59:19.069Z,19.17
2023-02-21T21:01:49.040Z,20.50
2023-02-21T21:04:18.553Z,17.70
2023-02-21T21:06:48.525Z,18.07
2023-02-21T21:09:17.948Z,19.27
2023-02-21T21:11:46.587Z,19.50
2023-02-21T21:14:16.343Z,22.93
2023-02-21T21:16:45.766Z,23.63
2023-02-21T21:19:13.805Z,24.53
2023-02-21T21:21:42.330Z,25.47
2023-02-21T21:24:11.751Z,24.97
2023-02-21T21:26:47.211Z,21.57
2023-02-21T21:29:15.543Z,21.83
2023-02-21T21:31:48.318Z,20.90
2023-02-21T21:34:16.409Z,20.70
2023-02-21T21:36:46.116Z,19.33
2023-02-21T21:39:15.664Z,20.80
2023-02-21T21:41:46.516Z,21.10
2023-02-21T21:44:14.635Z,22.57
2023-02-21T21:46:46.704Z,21.13
2023-02-21T21:49:16.172Z,21.70
2023-02-21T21:51:45.311Z,19.33
2023-02-21T21:54:13.541Z,21.70
2023-02-21T21:56:43.777Z,22.87
2023-02-21T21:59:12.129Z,21.77
2023-02-21T22:01:41.361Z,21.30
2023-02-21T22:04:10.718Z,20.27
2023-02-21T22:06:38.779Z,16.83
2023-02-21T22:09:07.635Z,22.13
2023-02-21T22:11:36.646Z,21.33
2023-02-21T22:14:06.047Z,21.83
2023-02-21T22:16:36.633Z,22.67
2023-02-21T22:19:04.683Z,21.90
2023-02-21T22:21:32.892Z,18.73
2023-02-21T22:24:01.373Z,22.40
2023-02-21T22:26:30.956Z,21.53
2023-02-21T22:28:59.316Z,21.53
2023-02-21T22:31:29.265Z,20.37
2023-02-21T22:33:59.318Z,20.10
2023-02-21T22:36:27.716Z,17.83
2023-02-21T22:38:55.897Z,21.20
2023-02-21T22:41:26.221Z,16.10
2023-02-21T22:43:55.440Z,19.93
2023-02-21T22:46:25.489Z,18.43
2023-02-21T22:48:55.546Z,20.13
2023-02-21T22:51:27.819Z,19.47
2023-02-21T22:53:58.691Z,19.63
2023-02-21T22:56:28.856Z,17.80
2023-02-21T22:58:59.769Z,19.43
2023-02-21T23:01:28.845Z,19.33
2023-02-21T23:04:10.565Z,18.73
2023-02-21T23:06:38.814Z,18.33
2023-02-21T23:09:12.970Z,21.00
2023-02-21T23:11:42.451Z,19.93
2023-02-21T23:14:10.825Z,20.83
2023-02-21T23:16:39.163Z,20.23
2023-02-21T23:19:09.211Z,21.27
2023-02-21T23:21:44.098Z,21.30
2023-02-21T23:24:12.647Z,22.27
2023-02-21T23:26:43.895Z,21.13
2023-02-21T23:29:12.295Z,24.33
2023-02-21T23:31:40.892Z,22.97
2023-02-21T23:34:11.898Z,21.37
2023-02-21T23:36:40.699Z,23.57
2023-02-21T23:39:09.559Z,21.67
2023-02-21T23:41:40.466Z,23.93
2023-02-21T23:44:10.776Z,23.40
2023-02-21T23:46:42.343Z,23.30
2023-02-21T23:49:15.666Z,24.10
2023-02-21T23:51:44.884Z,22.50
2023-02-21T23:54:15.072Z,23.83
2023-02-21T23:56:46.943Z,21.90
2023-02-21T23:59:16.111Z,23.30
